EFHA

Halli Airport

Halli / Kuorevesi, Finland
METAR EFHA 151850Z AUTO 14005KT 9999 OVC003 M01/M02 Q0993
Observed Flight Rules
Dec-15 @ 18:50 UTC (42 minutes ago) Instrument Flight Rules
Wind Visibility Clouds
140° at 5 knots 10,000+ meters
  • Overcast at 300' AGL
Temperatures Readings
Current -1°C / 30°F
Dewpoint -2°C / 28°F
Humidity 93%
Altimeter 29.32" Hg
Pressure 993 hPa
Elevation 145
METAR EFHA 151850Z AUTO 14005KT 9999 OVC003 M01/M02 Q0993
Observed Flight Rules
Dec-15 @ 18:50 UTC
(42 minutes ago)
LIFR
Wind Visibility
140° at 5 knots 10,000+ meters
Clouds
  • Overcast at 300' AGL
Temperature Dewpoint
-1°C / 30°F -2°C / 28°F
Humidity Altimeter Pressure
93% 29.32" Hg 993 hPa